createdAt,value
2023-04-09T00:01:11.920Z,31.30
2023-04-09T00:03:40.662Z,28.50
2023-04-09T00:06:08.808Z,28.00
2023-04-09T00:08:36.651Z,28.20
2023-04-09T00:11:05.728Z,27.50
2023-04-09T00:13:39.191Z,28.70
2023-04-09T00:16:09.491Z,27.40
2023-04-09T00:18:37.506Z,28.30
2023-04-09T00:21:05.750Z,28.50
2023-04-09T00:23:34.480Z,27.30
2023-04-09T00:26:02.329Z,28.20
2023-04-09T00:28:30.647Z,29.00
2023-04-09T00:30:58.682Z,30.70
2023-04-09T00:33:26.642Z,33.10
2023-04-09T00:35:54.590Z,33.30
2023-04-09T00:38:22.644Z,32.70
2023-04-09T00:40:51.356Z,31.50
2023-04-09T00:43:19.330Z,32.70
2023-04-09T00:45:47.631Z,33.10
2023-04-09T00:48:16.417Z,34.30
2023-04-09T00:50:44.568Z,34.00
2023-04-09T00:53:14.359Z,30.90
2023-04-09T00:55:42.378Z,32.40
2023-04-09T00:58:10.282Z,32.50
2023-04-09T01:00:38.273Z,30.90
2023-04-09T01:03:07.633Z,29.80
2023-04-09T01:06:02.231Z,31.00
2023-04-09T01:08:33.100Z,31.50
2023-04-09T01:11:14.123Z,32.50
2023-04-09T01:14:00.592Z,31.20
2023-04-09T01:16:32.818Z,33.30
2023-04-09T01:19:22.986Z,28.90
2023-04-09T01:21:52.709Z,30.70
2023-04-09T01:24:59.901Z,32.60
2023-04-09T01:27:47.159Z,30.20
2023-04-09T01:30:17.292Z,34.90
2023-04-09T01:32:45.948Z,29.20
2023-04-09T01:35:14.409Z,30.20
2023-04-09T01:37:42.984Z,31.00
2023-04-09T01:40:11.366Z,31.90
2023-04-09T01:42:41.164Z,34.10
2023-04-09T01:45:11.844Z,31.50
2023-04-09T01:47:40.755Z,31.90
2023-04-09T01:50:09.222Z,32.10
2023-04-09T01:52:37.378Z,31.40
2023-04-09T01:55:05.741Z,33.80
2023-04-09T01:57:33.654Z,32.70
2023-04-09T02:00:01.609Z,33.80
2023-04-09T02:02:42.966Z,31.30
2023-04-09T02:05:15.466Z,32.70
2023-04-09T02:07:47.500Z,33.70
2023-04-09T02:10:17.414Z,35.80
2023-04-09T02:12:50.029Z,35.70
2023-04-09T02:15:20.420Z,34.40
2023-04-09T02:17:48.454Z,33.80
2023-04-09T02:20:20.056Z,31.90
2023-04-09T02:22:48.470Z,34.50
2023-04-09T02:25:16.475Z,32.10
2023-04-09T02:27:44.335Z,31.40
2023-04-09T02:30:12.349Z,32.40
2023-04-09T02:32:40.413Z,30.40
2023-04-09T02:35:08.413Z,28.60
2023-04-09T02:37:36.412Z,29.40
2023-04-09T02:40:04.600Z,29.90
2023-04-09T02:42:32.606Z,29.70
2023-04-09T02:45:00.502Z,28.80
2023-04-09T02:47:30.579Z,29.80
2023-04-09T02:49:58.589Z,28.50
2023-04-09T02:52:26.392Z,28.60
2023-04-09T02:54:54.417Z,27.90
2023-04-09T02:57:22.416Z,29.30
2023-04-09T02:59:50.347Z,29.70
2023-04-09T03:02:18.289Z,26.80
2023-04-09T03:04:46.334Z,27.30
2023-04-09T03:07:14.216Z,26.60
2023-04-09T03:09:42.116Z,29.20
2023-04-09T03:12:10.140Z,30.30
2023-04-09T03:14:37.968Z,32.60
2023-04-09T03:17:05.978Z,29.30
2023-04-09T03:19:34.021Z,27.20
2023-04-09T03:22:02.473Z,28.30
2023-04-09T03:24:32.264Z,28.40
2023-04-09T03:27:00.389Z,28.50
2023-04-09T03:29:28.237Z,30.50
2023-04-09T03:31:56.143Z,29.50
2023-04-09T03:34:24.695Z,28.70
2023-04-09T03:36:52.846Z,28.90
2023-04-09T03:39:20.747Z,28.70
2023-04-09T03:41:48.909Z,26.70
2023-04-09T03:44:17.046Z,25.80
2023-04-09T03:46:45.591Z,26.10
2023-04-09T03:49:13.557Z,27.50
2023-04-09T03:51:41.619Z,26.50
2023-04-09T03:54:09.516Z,26.70
2023-04-09T03:56:37.393Z,26.20
2023-04-09T03:59:05.496Z,29.40
2023-04-09T04:01:33.506Z,28.30
2023-04-09T04:04:01.822Z,25.70
2023-04-09T04:06:30.066Z,23.00
2023-04-09T04:08:57.988Z,27.80
2023-04-09T04:11:25.967Z,24.40
2023-04-09T04:13:55.856Z,24.90
2023-04-09T04:16:24.321Z,25.50
2023-04-09T04:18:52.408Z,25.40
2023-04-09T04:21:20.426Z,25.60
2023-04-09T04:23:48.314Z,26.40
2023-04-09T04:26:16.237Z,27.50
2023-04-09T04:28:44.374Z,23.70
2023-04-09T04:31:13.176Z,24.40
2023-04-09T04:33:42.464Z,26.40
2023-04-09T04:36:14.516Z,25.90
2023-04-09T04:38:42.694Z,26.20
2023-04-09T04:41:11.540Z,24.70
2023-04-09T04:43:41.485Z,27.30
2023-04-09T04:46:09.465Z,27.80
2023-04-09T04:48:37.812Z,27.40
2023-04-09T04:51:05.828Z,26.50
2023-04-09T04:53:33.711Z,26.60
2023-04-09T04:56:01.699Z,24.50
2023-04-09T04:58:30.636Z,25.60
2023-04-09T05:00:58.746Z,28.80
2023-04-09T05:03:27.705Z,26.50
2023-04-09T05:05:56.212Z,26.50
2023-04-09T05:08:24.151Z,25.40
2023-04-09T05:10:52.112Z,26.30
2023-04-09T05:13:19.968Z,28.20
2023-04-09T05:15:47.961Z,25.90
2023-04-09T05:18:15.968Z,24.40
2023-04-09T05:20:43.865Z,27.50
2023-04-09T05:23:12.766Z,26.80
2023-04-09T05:25:41.028Z,27.10
2023-04-09T05:28:11.251Z,28.10
2023-04-09T05:30:39.348Z,29.70
2023-04-09T05:33:07.367Z,28.80
2023-04-09T05:35:39.338Z,28.40
2023-04-09T05:38:07.289Z,30.40
2023-04-09T05:40:35.551Z,29.60
2023-04-09T05:43:03.498Z,31.00
2023-04-09T05:45:31.492Z,30.60
2023-04-09T05:47:59.418Z,30.40
2023-04-09T05:50:27.530Z,26.50
2023-04-09T05:52:55.990Z,30.10
2023-04-09T05:55:23.845Z,24.10
2023-04-09T05:57:54.671Z,24.40
2023-04-09T06:00:22.548Z,24.00
2023-04-09T06:02:50.950Z,25.20
2023-04-09T06:05:18.869Z,25.00
2023-04-09T06:07:46.826Z,24.40
2023-04-09T06:10:14.680Z,25.20
2023-04-09T06:12:42.521Z,26.70
2023-04-09T06:15:11.022Z,25.20
2023-04-09T06:17:39.112Z,26.70
2023-04-09T06:20:07.782Z,26.00
2023-04-09T06:22:35.818Z,27.90
2023-04-09T06:25:04.285Z,28.20
2023-04-09T06:27:32.279Z,28.50
2023-04-09T06:30:00.376Z,26.60
2023-04-09T06:32:28.313Z,25.70
2023-04-09T06:34:56.320Z,25.40
2023-04-09T06:37:24.651Z,27.10
2023-04-09T06:40:00.497Z,26.90
2023-04-09T06:42:29.076Z,28.00
2023-04-09T06:44:57.204Z,30.00
2023-04-09T06:47:25.613Z,29.50
2023-04-09T06:49:53.575Z,27.50
2023-04-09T06:52:21.518Z,31.70
2023-04-09T06:54:49.393Z,28.10
2023-04-09T06:57:17.361Z,30.60
2023-04-09T06:59:45.761Z,29.30
2023-04-09T07:02:13.981Z,30.70
2023-04-09T07:04:42.215Z,30.50
2023-04-09T07:07:10.668Z,30.80
2023-04-09T07:09:38.639Z,31.30
2023-04-09T07:12:06.557Z,29.70
2023-04-09T07:14:34.452Z,30.40
2023-04-09T07:17:02.493Z,30.40
2023-04-09T07:19:30.994Z,32.40
2023-04-09T07:21:58.848Z,32.00
2023-04-09T07:24:26.925Z,32.40
2023-04-09T07:26:54.731Z,30.00
2023-04-09T07:29:22.662Z,30.70
2023-04-09T07:31:51.052Z,32.20
2023-04-09T07:34:19.033Z,31.20
2023-04-09T07:36:46.862Z,33.00
2023-04-09T07:39:14.673Z,32.00
2023-04-09T07:41:42.664Z,30.20
2023-04-09T07:44:10.501Z,31.60
2023-04-09T07:46:40.016Z,31.90
2023-04-09T07:49:07.961Z,32.90
2023-04-09T07:51:35.918Z,31.60
2023-04-09T07:54:03.798Z,30.40
2023-04-09T07:56:31.694Z,33.80
2023-04-09T07:58:59.544Z,32.70
2023-04-09T08:01:27.667Z,32.20
2023-04-09T08:03:55.724Z,30.80
2023-04-09T08:06:23.765Z,30.20
2023-04-09T08:08:51.926Z,30.60
2023-04-09T08:11:25.262Z,30.90
2023-04-09T08:13:53.265Z,33.30
2023-04-09T08:16:21.464Z,29.10
2023-04-09T08:18:51.375Z,29.70
2023-04-09T08:21:20.101Z,31.10
2023-04-09T08:23:48.195Z,30.50
2023-04-09T08:26:16.066Z,30.80
2023-04-09T08:28:44.005Z,30.20
2023-04-09T08:31:11.866Z,31.00
2023-04-09T08:33:39.697Z,31.90
2023-04-09T08:36:11.949Z,30.80
2023-04-09T08:38:40.766Z,29.90
2023-04-09T08:41:17.176Z,35.10
2023-04-09T08:46:21.917Z,36.20
2023-04-09T08:48:51.937Z,34.70
2023-04-09T08:51:22.733Z,34.90
2023-04-09T08:53:58.340Z,37.20
2023-04-09T08:56:26.733Z,34.50
2023-04-09T08:58:56.307Z,33.80
2023-04-09T09:01:31.902Z,34.80
2023-04-09T09:04:08.340Z,36.10
2023-04-09T09:06:38.713Z,34.30
2023-04-09T09:09:07.754Z,32.20
2023-04-09T09:11:38.017Z,33.50
2023-04-09T09:14:08.661Z,33.00
2023-04-09T09:16:45.349Z,31.20
2023-04-09T09:19:25.632Z,32.80
2023-04-09T09:22:01.846Z,33.10
2023-04-09T09:24:31.053Z,29.70
2023-04-09T09:26:59.237Z,28.90
2023-04-09T09:29:28.224Z,28.70
2023-04-09T09:31:56.641Z,30.20
2023-04-09T09:34:26.251Z,30.70
2023-04-09T09:36:54.552Z,29.60
2023-04-09T09:39:22.750Z,29.10
2023-04-09T09:42:09.660Z,27.30
2023-04-09T09:44:37.523Z,27.00
2023-04-09T09:47:06.392Z,26.30
2023-04-09T09:49:37.990Z,26.10
2023-04-09T09:52:11.567Z,22.80
2023-04-09T09:54:43.973Z,24.00
2023-04-09T09:57:14.644Z,25.10
2023-04-09T09:59:50.981Z,25.80
2023-04-09T10:02:20.682Z,24.10
2023-04-09T10:04:52.825Z,24.90
2023-04-09T10:07:22.441Z,24.10
2023-04-09T10:09:52.031Z,26.30
2023-04-09T10:12:25.786Z,24.40
2023-04-09T10:14:56.305Z,23.90
2023-04-09T10:17:24.194Z,24.00
2023-04-09T10:20:22.160Z,24.10
2023-04-09T10:22:51.838Z,24.90
2023-04-09T10:25:20.712Z,23.00
2023-04-09T10:28:16.601Z,25.00
2023-04-09T10:30:44.815Z,23.90
2023-04-09T10:33:17.166Z,23.30
2023-04-09T10:35:47.249Z,21.60
2023-04-09T10:38:15.553Z,22.10
2023-04-09T10:40:51.035Z,21.20
2023-04-09T10:43:21.124Z,20.20
2023-04-09T10:45:53.581Z,21.20
2023-04-09T10:48:26.711Z,21.30
2023-04-09T10:50:55.474Z,21.70
2023-04-09T10:53:24.870Z,22.80
2023-04-09T10:55:54.358Z,22.50
2023-04-09T10:58:22.225Z,22.50
2023-04-09T11:00:51.488Z,22.80
2023-04-09T11:03:25.312Z,20.90
2023-04-09T11:06:11.845Z,22.10
2023-04-09T11:08:41.667Z,21.70
2023-04-09T11:11:09.683Z,20.50
2023-04-09T11:13:37.592Z,19.50
2023-04-09T11:16:07.338Z,20.20
2023-04-09T11:18:37.132Z,20.10
2023-04-09T11:21:05.286Z,20.10
2023-04-09T11:23:33.980Z,19.70
2023-04-09T11:26:02.525Z,18.80
2023-04-09T11:28:30.473Z,19.90
2023-04-09T11:30:58.324Z,20.70
2023-04-09T11:33:33.254Z,18.80
2023-04-09T11:36:01.824Z,19.60
2023-04-09T11:38:31.832Z,19.20
2023-04-09T11:40:59.759Z,19.10
2023-04-09T11:43:27.814Z,19.30
2023-04-09T11:45:57.512Z,18.80
2023-04-09T11:48:26.067Z,18.20
2023-04-09T11:50:54.314Z,17.50
2023-04-09T11:53:23.756Z,18.30
2023-04-09T11:55:53.321Z,18.00
2023-04-09T11:58:26.376Z,18.50
2023-04-09T12:00:56.420Z,17.40
2023-04-09T12:03:33.170Z,17.20
2023-04-09T12:06:03.042Z,15.80
2023-04-09T12:08:31.845Z,16.60
2023-04-09T12:11:09.375Z,15.80
2023-04-09T12:13:37.360Z,16.00
2023-04-09T12:16:05.736Z,15.90
2023-04-09T12:18:36.793Z,15.10
2023-04-09T12:21:05.801Z,16.30
2023-04-09T12:23:33.657Z,16.60
2023-04-09T12:26:02.364Z,16.70
2023-04-09T12:28:30.901Z,15.90
2023-04-09T12:30:59.657Z,14.90
2023-04-09T12:33:27.608Z,14.80
2023-04-09T12:35:58.383Z,15.00
2023-04-09T12:38:26.911Z,15.00
2023-04-09T12:40:54.932Z,14.40
2023-04-09T12:43:22.900Z,14.50
2023-04-09T12:45:52.871Z,15.10
2023-04-09T12:48:20.981Z,15.10
2023-04-09T12:50:48.882Z,14.70
2023-04-09T12:53:16.825Z,14.80
2023-04-09T12:55:44.729Z,14.70
2023-04-09T12:58:12.672Z,14.70
2023-04-09T13:00:40.809Z,14.50
2023-04-09T13:03:09.270Z,15.00
2023-04-09T13:05:37.344Z,14.70
2023-04-09T13:08:05.288Z,14.80
2023-04-09T13:10:33.380Z,14.70
2023-04-09T13:13:01.534Z,15.10
2023-04-09T13:15:29.580Z,14.30
2023-04-09T13:17:57.637Z,14.20
2023-04-09T13:20:25.632Z,14.80
2023-04-09T13:22:53.500Z,15.30
2023-04-09T13:25:21.504Z,15.00
2023-04-09T13:27:49.445Z,14.80
2023-04-09T13:30:17.424Z,14.80
2023-04-09T13:32:45.893Z,14.70
2023-04-09T13:35:14.096Z,14.30
2023-04-09T13:37:42.254Z,13.90
2023-04-09T13:40:10.681Z,13.20
2023-04-09T13:42:38.604Z,14.00
2023-04-09T13:45:07.143Z,14.30
2023-04-09T13:47:35.159Z,13.40
2023-04-09T13:50:03.200Z,14.00
2023-04-09T13:52:32.855Z,13.80
2023-04-09T13:55:00.824Z,14.20
2023-04-09T13:57:28.680Z,12.30
2023-04-09T13:59:56.596Z,12.80
2023-04-09T14:02:24.929Z,12.20
2023-04-09T14:04:53.107Z,12.00
2023-04-09T14:07:21.132Z,12.00
2023-04-09T14:09:50.797Z,12.00
2023-04-09T14:12:18.786Z,10.60
2023-04-09T14:14:46.645Z,11.40
2023-04-09T14:17:14.620Z,11.60
2023-04-09T14:19:42.559Z,11.40
2023-04-09T14:22:11.607Z,11.00
2023-04-09T14:24:42.200Z,11.00
2023-04-09T14:27:10.323Z,10.50
2023-04-09T14:29:38.193Z,11.40
2023-04-09T14:32:06.281Z,11.10
2023-04-09T14:34:34.295Z,11.20
2023-04-09T14:37:02.903Z,11.10
2023-04-09T14:39:30.835Z,11.50
2023-04-09T14:41:58.627Z,10.70
2023-04-09T14:44:27.301Z,10.40
2023-04-09T14:46:56.912Z,11.10
2023-04-09T14:49:25.257Z,11.60
2023-04-09T14:51:53.141Z,10.80
2023-04-09T14:54:21.349Z,11.30
2023-04-09T14:56:49.245Z,12.00
2023-04-09T14:59:17.106Z,11.50
2023-04-09T15:01:45.265Z,11.60
2023-04-09T15:04:13.353Z,11.90
2023-04-09T15:06:41.333Z,11.40
2023-04-09T15:09:09.312Z,11.60
2023-04-09T15:11:37.166Z,11.20
2023-04-09T15:14:04.948Z,12.00
2023-04-09T15:16:37.428Z,12.30
2023-04-09T15:19:05.616Z,13.00
2023-04-09T15:21:33.492Z,12.50
2023-04-09T15:24:01.550Z,11.90
2023-04-09T15:26:29.458Z,11.60
2023-04-09T15:29:07.917Z,12.10
2023-04-09T15:31:36.399Z,11.80
2023-04-09T15:34:05.220Z,12.80
2023-04-09T15:36:33.116Z,12.60
2023-04-09T15:39:05.077Z,12.50
2023-04-09T15:41:33.962Z,12.50
2023-04-09T15:44:01.806Z,12.00
2023-04-09T15:46:29.756Z,12.60
2023-04-09T15:48:57.627Z,13.10
2023-04-09T15:51:27.070Z,13.10
2023-04-09T15:53:55.452Z,12.20
2023-04-09T15:56:23.786Z,12.90
2023-04-09T15:58:51.802Z,12.10
2023-04-09T16:01:20.133Z,12.50
2023-04-09T16:03:52.130Z,12.30
2023-04-09T16:06:20.235Z,12.80
2023-04-09T16:08:48.225Z,12.70
2023-04-09T16:11:17.474Z,11.90
2023-04-09T16:13:46.286Z,12.90
2023-04-09T16:16:14.278Z,13.00
2023-04-09T16:18:42.280Z,12.80
2023-04-09T16:21:10.127Z,12.70
2023-04-09T16:23:38.652Z,13.10
2023-04-09T16:26:07.120Z,12.90
2023-04-09T16:28:35.118Z,13.60
2023-04-09T16:31:03.212Z,12.60
2023-04-09T16:33:31.254Z,13.10
2023-04-09T16:35:59.580Z,12.90
2023-04-09T16:38:29.257Z,13.00
2023-04-09T16:40:57.230Z,12.50
2023-04-09T16:43:25.883Z,13.00
2023-04-09T16:45:53.881Z,12.70
2023-04-09T16:48:21.898Z,12.40
2023-04-09T16:50:49.786Z,13.00
2023-04-09T16:53:17.834Z,13.30
2023-04-09T16:55:45.843Z,13.00
2023-04-09T16:58:13.701Z,13.80
2023-04-09T17:00:42.068Z,12.90
2023-04-09T17:03:10.330Z,12.30
2023-04-09T17:05:38.468Z,13.50
2023-04-09T17:08:06.873Z,13.60
2023-04-09T17:10:36.888Z,14.30
2023-04-09T17:13:04.833Z,14.20
2023-04-09T17:15:32.636Z,14.40
2023-04-09T17:18:01.609Z,14.60
2023-04-09T17:20:30.121Z,14.10
2023-04-09T17:22:57.982Z,15.00
2023-04-09T17:25:26.034Z,15.20
2023-04-09T17:27:54.580Z,15.20
2023-04-09T17:30:22.491Z,15.60
2023-04-09T17:32:51.338Z,14.60
2023-04-09T17:35:19.296Z,15.30
2023-04-09T17:37:47.282Z,15.50
2023-04-09T17:40:17.521Z,14.40
2023-04-09T17:42:46.497Z,16.20
2023-04-09T17:45:15.005Z,15.30
2023-04-09T17:47:42.919Z,16.00
2023-04-09T17:50:11.359Z,15.70
2023-04-09T17:52:40.676Z,16.30
2023-04-09T17:55:12.441Z,17.60
2023-04-09T17:57:41.916Z,17.50
2023-04-09T18:00:11.140Z,18.00
2023-04-09T18:02:39.593Z,18.20
2023-04-09T18:05:08.472Z,18.90
2023-04-09T18:07:36.803Z,19.00
2023-04-09T18:10:05.587Z,18.00
2023-04-09T18:12:33.547Z,19.50
2023-04-09T18:15:01.598Z,20.10
2023-04-09T18:17:29.672Z,18.40
2023-04-09T18:19:58.465Z,19.20
2023-04-09T18:22:27.670Z,19.00
2023-04-09T18:24:55.875Z,18.60
2023-04-09T18:27:23.770Z,19.20
2023-04-09T18:29:51.777Z,20.50
2023-04-09T18:32:19.945Z,20.00
2023-04-09T18:34:49.681Z,20.80
2023-04-09T18:37:18.385Z,19.40
2023-04-09T18:39:46.859Z,20.20
2023-04-09T18:42:14.738Z,20.10
2023-04-09T18:44:42.828Z,21.00
2023-04-09T18:47:11.230Z,21.40
2023-04-09T18:49:39.170Z,21.20
2023-04-09T18:52:13.198Z,21.40
2023-04-09T18:54:41.078Z,22.50
2023-04-09T18:57:09.025Z,22.90
2023-04-09T18:59:37.394Z,23.60
2023-04-09T19:02:06.019Z,23.50
2023-04-09T19:04:36.587Z,25.10
2023-04-09T19:07:05.314Z,24.30
2023-04-09T19:09:33.722Z,25.20
2023-04-09T19:12:02.288Z,26.80
2023-04-09T19:14:30.487Z,27.10
2023-04-09T19:16:59.653Z,25.30
2023-04-09T19:19:29.170Z,23.40
2023-04-09T19:21:58.518Z,22.50
2023-04-09T19:24:26.489Z,22.30
2023-04-09T19:26:55.103Z,22.50
2023-04-09T19:29:22.995Z,22.40
2023-04-09T19:31:51.204Z,22.90
2023-04-09T19:34:19.126Z,20.50
2023-04-09T19:36:46.884Z,19.50
2023-04-09T19:39:15.503Z,20.00
2023-04-09T19:41:46.078Z,20.50
2023-04-09T19:44:14.048Z,21.20
2023-04-09T19:46:41.894Z,22.00
2023-04-09T19:49:09.773Z,23.00
2023-04-09T19:51:38.887Z,22.30
2023-04-09T19:54:06.994Z,23.10
2023-04-09T19:56:35.071Z,23.30
2023-04-09T19:59:03.011Z,23.00
2023-04-09T20:01:31.047Z,23.00
2023-04-09T20:03:59.884Z,25.40
2023-04-09T20:06:28.970Z,23.30
2023-04-09T20:08:56.948Z,24.00
2023-04-09T20:11:24.900Z,25.10
2023-04-09T20:13:52.867Z,27.70
2023-04-09T20:16:20.782Z,27.50
2023-04-09T20:18:48.761Z,27.70
2023-04-09T20:21:16.697Z,27.00
2023-04-09T20:23:45.587Z,25.80
2023-04-09T20:26:13.848Z,25.00
2023-04-09T20:28:42.095Z,23.00
2023-04-09T20:31:10.047Z,22.80
2023-04-09T20:33:37.979Z,24.20
2023-04-09T20:36:17.285Z,22.80
2023-04-09T20:38:45.501Z,21.30
2023-04-09T20:41:13.645Z,22.30
2023-04-09T20:43:41.560Z,22.40
2023-04-09T20:46:09.731Z,21.80
2023-04-09T20:48:38.101Z,21.40
2023-04-09T20:51:10.780Z,20.40
2023-04-09T20:53:39.153Z,22.10
2023-04-09T20:56:08.581Z,21.40
2023-04-09T20:58:36.831Z,23.30
2023-04-09T21:01:07.407Z,23.30
2023-04-09T21:03:36.742Z,23.00
2023-04-09T21:06:05.421Z,22.50
2023-04-09T21:08:33.226Z,24.00
2023-04-09T21:11:02.252Z,23.00
2023-04-09T21:13:33.719Z,21.80
2023-04-09T21:16:08.595Z,22.70
2023-04-09T21:18:36.563Z,22.60
2023-04-09T21:21:07.992Z,23.10
2023-04-09T21:23:35.929Z,21.90
2023-04-09T21:26:05.010Z,22.00
2023-04-09T21:28:33.130Z,22.90
2023-04-09T21:31:00.993Z,22.40
2023-04-09T21:33:30.194Z,21.60
2023-04-09T21:35:58.424Z,23.50
2023-04-09T21:38:26.403Z,23.20
2023-04-09T21:40:54.287Z,21.10
2023-04-09T21:43:22.201Z,21.70
2023-04-09T21:45:50.732Z,22.30
2023-04-09T21:48:18.581Z,23.10
2023-04-09T21:50:46.500Z,21.30
2023-04-09T21:53:15.656Z,22.70
2023-04-09T21:55:43.552Z,21.70
2023-04-09T21:58:12.142Z,23.10
2023-04-09T22:00:40.123Z,22.20
2023-04-09T22:03:08.259Z,23.40
2023-04-09T22:05:36.590Z,21.90
2023-04-09T22:08:04.455Z,22.30
2023-04-09T22:10:32.385Z,23.80
2023-04-09T22:13:00.281Z,22.20
2023-04-09T22:15:28.345Z,22.50
2023-04-09T22:17:56.312Z,22.60
2023-04-09T22:20:26.226Z,21.00
2023-04-09T22:22:54.755Z,22.20
2023-04-09T22:25:22.733Z,22.30
2023-04-09T22:27:53.310Z,22.30
2023-04-09T22:30:22.004Z,22.70
2023-04-09T22:32:51.526Z,22.20
2023-04-09T22:35:19.564Z,21.90
2023-04-09T22:37:47.548Z,21.30
2023-04-09T22:40:16.025Z,20.80
2023-04-09T22:42:46.681Z,22.00
2023-04-09T22:45:14.679Z,23.90
2023-04-09T22:47:42.542Z,22.30
2023-04-09T22:50:11.211Z,22.30
2023-04-09T22:52:39.082Z,21.30
2023-04-09T22:55:10.128Z,23.80
2023-04-09T22:57:38.450Z,22.00
2023-04-09T23:00:08.506Z,22.70
2023-04-09T23:02:37.055Z,21.20
2023-04-09T23:05:05.840Z,21.60
2023-04-09T23:07:34.083Z,21.20
2023-04-09T23:10:02.071Z,19.00
2023-04-09T23:12:29.861Z,21.50
2023-04-09T23:14:57.767Z,21.00
2023-04-09T23:17:27.890Z,20.50
2023-04-09T23:19:55.804Z,21.10
2023-04-09T23:22:24.392Z,21.20
2023-04-09T23:24:52.218Z,22.40
2023-04-09T23:27:20.327Z,22.40
2023-04-09T23:29:48.317Z,22.10
2023-04-09T23:32:16.325Z,24.20
2023-04-09T23:34:44.140Z,23.20
2023-04-09T23:37:12.110Z,21.10
2023-04-09T23:39:41.262Z,21.70
2023-04-09T23:42:09.206Z,21.20
2023-04-09T23:44:37.164Z,21.60
2023-04-09T23:47:06.588Z,21.30
2023-04-09T23:49:34.454Z,21.30
2023-04-09T23:52:02.283Z,20.80
2023-04-09T23:54:30.798Z,21.90
2023-04-09T23:56:59.705Z,20.20
2023-04-09T23:59:27.831Z,20.30
